OPA Logo
 

ASOS: KRDM
At:2017.09.25 0456 UTC
Wind:240° @ 3KT
Viz: 10 mile(s)
Sky: clear
Temp: 45.0 F (7.2 C)
DewP: 30.0 F (-1.1 C)
RH: 55%
Baro: 30.12 in.
ob: KRDM 250456Z AUTO 24003KT 10SM CLR 07/M01 A3012 RMK AO2 SLP200 T00721011
Apache-SSL Logo

Valid HTML 4.01!

Central Oregon OPA Chapter

Upcoming Fly Outs


2004

June

12 Bend, OR - Flying Festival - Bend Airport

Other Fly-Out pages

Oregon Pilots Association Events Calendar

Washington Pilots Association Events

Past Fly Outs


Caldwell, ID and the Kitfox factory February 2002

XMAS Party 2001

Pasco, WA November 2001

Bend Airport Open House 2001

Flyout May 2001 to Flying M Ranch

Flyout April 2001 to Tillamook Air Museum


Web page by: gem@rellim.com